IGR weather

Cataratas Del Iguazú International Airport
Puerto Iguazu, Misiones Province, Argentina

Public forecast

Using degrees Celsius for public forecast. Weather courtesy of forecast.io.

METAR (pilot weather report)

Retrieved 2019/06/25 21:00 UTC (54 seconds ago):

SARI 252100Z 05004KT 9999 FEW040TCU BKN080 25/18 Q1008

TAF (pilot weather forecast)

Retrieved 2019/06/25 18:00 UTC (3 hours ago):

TAF SARI 251700Z 2518/2618 02010KT 9999 SCT030 BKN100 TX23/2519Z TN08/2610Z BECMG 2523/2601 20015KT 8000 -RA DZ BKN010 OVC030 PROB30 2603/2606 5000 TSRA BKN020 BKN040 FEW045CB BECMG 2612/1614 BKN020 BKN070 BECMG 2615/1617 SCT025 BKN100